createdAt,value
2022-12-01T00:01:02.595Z,127.22
2022-12-01T00:03:33.359Z,143.15
2022-12-01T00:06:00.783Z,145.77
2022-12-01T00:08:28.270Z,126.68
2022-12-01T00:10:56.576Z,146.60
2022-12-01T00:13:23.237Z,129.80
2022-12-01T00:15:50.277Z,127.38
2022-12-01T00:18:16.937Z,129.80
2022-12-01T00:20:43.653Z,132.82
2022-12-01T00:23:10.272Z,121.15
2022-12-01T00:25:37.150Z,111.00
2022-12-01T00:28:04.006Z,113.57
2022-12-01T00:30:30.912Z,108.50
2022-12-01T00:32:57.596Z,96.85
2022-12-01T00:35:24.445Z,106.85
2022-12-01T00:37:51.156Z,112.90
2022-12-01T00:40:17.927Z,114.63
2022-12-01T00:42:44.566Z,131.68
2022-12-01T00:45:11.405Z,124.20
2022-12-01T00:47:38.080Z,121.85
2022-12-01T00:50:05.210Z,125.72
2022-12-01T00:52:31.896Z,124.78
2022-12-01T00:54:58.771Z,127.13
2022-12-01T00:57:25.519Z,127.43
2022-12-01T00:59:52.339Z,110.07
2022-12-01T01:02:19.250Z,94.30
2022-12-01T01:04:45.946Z,97.85
2022-12-01T01:07:12.711Z,97.97
2022-12-01T01:09:39.435Z,94.22
2022-12-01T01:12:06.344Z,103.90
2022-12-01T01:14:33.019Z,96.18
2022-12-01T01:16:59.843Z,98.18
2022-12-01T01:19:26.534Z,104.13
2022-12-01T01:21:53.347Z,104.80
2022-12-01T01:24:20.012Z,94.60
2022-12-01T01:26:46.948Z,82.00
2022-12-01T01:29:13.631Z,88.60
2022-12-01T01:31:40.499Z,106.10
2022-12-01T01:34:07.176Z,112.60
2022-12-01T01:36:34.146Z,113.00
2022-12-01T01:39:01.427Z,120.75
2022-12-01T01:41:28.947Z,118.07
2022-12-01T01:44:01.961Z,113.63
2022-12-01T01:46:33.947Z,115.50
2022-12-01T01:49:08.231Z,104.60
2022-12-01T01:51:43.397Z,100.07
2022-12-01T01:54:18.426Z,98.03
2022-12-01T01:56:46.088Z,89.57
2022-12-01T01:59:15.220Z,102.18
2022-12-01T02:01:42.061Z,90.13
2022-12-01T02:04:08.711Z,93.22
2022-12-01T02:06:35.859Z,99.75
2022-12-01T02:09:02.497Z,101.30
2022-12-01T02:11:53.812Z,102.30
2022-12-01T02:14:25.120Z,87.90
2022-12-01T02:17:25.966Z,91.03
2022-12-01T02:20:30.377Z,81.18
2022-12-01T02:23:06.006Z,79.60
2022-12-01T02:25:46.346Z,78.07
2022-12-01T02:28:37.214Z,79.65
2022-12-01T02:31:22.965Z,89.15
2022-12-01T02:33:54.415Z,83.03
2022-12-01T02:36:31.384Z,87.13
2022-12-01T02:39:23.152Z,97.15
2022-12-01T02:41:53.978Z,99.88
2022-12-01T02:44:26.204Z,89.88
2022-12-01T02:47:00.763Z,111.10
2022-12-01T02:49:32.546Z,98.05
2022-12-01T02:52:00.289Z,88.20
2022-12-01T02:54:29.945Z,99.15
2022-12-01T02:56:57.215Z,119.35
2022-12-01T02:59:24.103Z,113.53
2022-12-01T03:02:11.891Z,111.13
2022-12-01T03:04:44.742Z,96.93
2022-12-01T03:07:39.336Z,93.35
2022-12-01T03:10:41.627Z,98.32
2022-12-01T03:13:35.658Z,101.10
2022-12-01T03:16:12.873Z,88.43
2022-12-01T03:18:54.900Z,92.22
2022-12-01T03:21:33.866Z,95.93
2022-12-01T03:24:19.452Z,80.38
2022-12-01T03:26:52.476Z,94.68
2022-12-01T03:29:30.796Z,77.90
2022-12-01T03:32:14.340Z,81.40
2022-12-01T03:34:45.484Z,75.55
2022-12-01T03:37:31.936Z,80.97
2022-12-01T03:40:00.950Z,74.93
2022-12-01T03:42:39.123Z,77.38
2022-12-01T03:45:09.387Z,79.25
2022-12-01T03:47:37.854Z,73.10
2022-12-01T03:50:05.933Z,77.78
2022-12-01T03:52:41.471Z,79.03
2022-12-01T03:55:08.144Z,82.00
2022-12-01T03:57:41.579Z,77.18
2022-12-01T04:00:11.443Z,81.72
2022-12-01T04:02:41.288Z,85.15
2022-12-01T04:05:09.391Z,87.60
2022-12-01T04:07:37.549Z,79.78
2022-12-01T04:10:05.390Z,88.85
2022-12-01T04:12:35.407Z,80.57
2022-12-01T04:15:06.335Z,81.60
2022-12-01T04:17:33.099Z,90.78
2022-12-01T04:20:00.101Z,85.75
2022-12-01T04:22:27.155Z,88.18
2022-12-01T04:24:54.010Z,74.50
2022-12-01T04:27:21.124Z,93.38
2022-12-01T04:29:48.254Z,91.25
2022-12-01T04:32:15.543Z,102.32
2022-12-01T04:34:42.343Z,104.63
2022-12-01T04:37:10.186Z,109.35
2022-12-01T04:39:37.037Z,113.28
2022-12-01T04:42:04.328Z,123.47
2022-12-01T04:44:34.732Z,123.68
2022-12-01T04:47:03.439Z,104.10
2022-12-01T04:49:30.269Z,111.15
2022-12-01T04:51:57.164Z,113.43
2022-12-01T04:54:24.026Z,114.30
2022-12-01T04:56:50.971Z,128.55
2022-12-01T04:59:17.643Z,116.65
2022-12-01T05:01:44.828Z,114.90
2022-12-01T05:04:12.885Z,122.82
2022-12-01T05:06:40.189Z,110.78
2022-12-01T05:09:07.220Z,108.72
2022-12-01T05:11:34.676Z,108.65
2022-12-01T05:14:01.315Z,106.20
2022-12-01T05:16:31.900Z,109.43
2022-12-01T05:19:19.972Z,95.78
2022-12-01T05:21:48.586Z,106.90
2022-12-01T05:24:16.017Z,94.32
2022-12-01T05:26:44.047Z,108.57
2022-12-01T05:29:11.562Z,105.03
2022-12-01T05:31:39.783Z,96.85
2022-12-01T05:34:07.552Z,94.63
2022-12-01T05:36:34.257Z,85.38
2022-12-01T05:39:01.168Z,90.35
2022-12-01T05:41:27.862Z,82.40
2022-12-01T05:43:54.780Z,78.03
2022-12-01T05:46:21.567Z,79.95
2022-12-01T05:48:48.439Z,94.90
2022-12-01T05:51:16.520Z,93.72
2022-12-01T05:53:43.837Z,81.88
2022-12-01T05:56:10.864Z,87.78
2022-12-01T05:58:37.900Z,96.07
2022-12-01T06:01:04.663Z,80.15
2022-12-01T06:03:31.420Z,79.72
2022-12-01T06:05:58.172Z,78.30
2022-12-01T06:08:24.976Z,81.40
2022-12-01T06:10:51.653Z,86.97
2022-12-01T06:13:18.513Z,90.72
2022-12-01T06:15:45.218Z,84.15
2022-12-01T06:18:11.990Z,79.55
2022-12-01T06:20:38.737Z,75.22
2022-12-01T06:23:06.043Z,81.57
2022-12-01T06:25:32.804Z,81.28
2022-12-01T06:27:59.851Z,74.80
2022-12-01T06:30:26.735Z,77.90
2022-12-01T06:32:53.785Z,86.65
2022-12-01T06:35:20.592Z,83.70
2022-12-01T06:37:47.663Z,84.15
2022-12-01T06:40:14.769Z,75.68
2022-12-01T06:42:41.569Z,77.53
2022-12-01T06:45:09.017Z,82.68
2022-12-01T06:47:35.879Z,72.78
2022-12-01T06:50:02.849Z,76.90
2022-12-01T06:52:29.680Z,85.03
2022-12-01T06:54:56.395Z,78.20
2022-12-01T06:57:23.458Z,84.90
2022-12-01T06:59:50.629Z,69.60
2022-12-01T07:02:18.062Z,79.50
2022-12-01T07:04:45.300Z,82.45
2022-12-01T07:07:12.780Z,90.03
2022-12-01T07:09:39.533Z,79.28
2022-12-01T07:12:06.753Z,77.40
2022-12-01T07:14:34.227Z,85.13
2022-12-01T07:17:07.397Z,80.05
2022-12-01T07:19:35.260Z,84.97
2022-12-01T07:22:03.099Z,77.07
2022-12-01T07:24:30.987Z,82.95
2022-12-01T07:26:58.597Z,90.10
2022-12-01T07:29:25.596Z,84.18
2022-12-01T07:31:52.848Z,75.30
2022-12-01T07:34:20.219Z,84.28
2022-12-01T07:36:47.227Z,84.38
2022-12-01T07:39:13.895Z,74.82
2022-12-01T07:41:40.700Z,70.70
2022-12-01T07:44:10.419Z,73.03
2022-12-01T07:46:37.376Z,78.97
2022-12-01T07:49:06.990Z,70.18
2022-12-01T07:51:34.747Z,75.72
2022-12-01T07:54:03.863Z,72.25
2022-12-01T07:56:30.778Z,71.68
2022-12-01T07:58:57.483Z,59.53
2022-12-01T08:01:25.198Z,69.50
2022-12-01T08:03:53.961Z,63.83
2022-12-01T08:06:21.285Z,73.57
2022-12-01T08:08:48.773Z,70.90
2022-12-01T08:11:20.743Z,66.13
2022-12-01T08:13:47.960Z,72.20
2022-12-01T08:16:17.905Z,74.05
2022-12-01T08:18:45.069Z,63.65
2022-12-01T08:21:14.691Z,68.20
2022-12-01T08:23:42.296Z,68.82
2022-12-01T08:26:14.363Z,71.47
2022-12-01T08:28:41.556Z,74.95
2022-12-01T08:31:20.030Z,65.20
2022-12-01T08:33:47.797Z,67.80
2022-12-01T08:36:15.625Z,65.90
2022-12-01T08:38:46.589Z,63.15
2022-12-01T08:41:14.643Z,71.63
2022-12-01T08:44:00.438Z,67.93
2022-12-01T08:46:31.506Z,71.80
2022-12-01T08:48:58.363Z,63.42
2022-12-01T08:51:25.704Z,73.10
2022-12-01T08:53:52.440Z,64.75
2022-12-01T08:56:22.940Z,69.30
2022-12-01T08:58:51.124Z,64.35
2022-12-01T09:01:18.822Z,61.70
2022-12-01T09:03:45.764Z,64.55
2022-12-01T09:06:20.770Z,65.78
2022-12-01T09:08:48.211Z,64.18
2022-12-01T09:11:17.507Z,67.47
2022-12-01T09:13:49.872Z,62.53
2022-12-01T09:16:20.007Z,64.47
2022-12-01T09:18:47.882Z,70.53
2022-12-01T09:21:21.055Z,64.50
2022-12-01T09:23:48.415Z,65.30
2022-12-01T09:26:18.639Z,64.78
2022-12-01T09:28:47.203Z,61.65
2022-12-01T09:31:14.867Z,63.17
2022-12-01T09:33:41.630Z,60.35
2022-12-01T09:36:09.469Z,69.82
2022-12-01T09:38:37.611Z,68.60
2022-12-01T09:41:12.019Z,53.03
2022-12-01T09:43:46.382Z,57.78
2022-12-01T09:46:20.371Z,63.35
2022-12-01T09:48:48.745Z,60.75
2022-12-01T09:51:21.934Z,59.75
2022-12-01T09:53:54.848Z,63.42
2022-12-01T09:56:26.948Z,63.88
2022-12-01T09:58:57.631Z,57.85
2022-12-01T10:01:41.937Z,47.65
2022-12-01T10:04:33.443Z,58.97
2022-12-01T10:07:20.551Z,58.70
2022-12-01T10:09:58.274Z,51.10
2022-12-01T10:12:27.919Z,55.42
2022-12-01T10:15:10.920Z,52.58
2022-12-01T10:17:51.047Z,52.10
2022-12-01T10:20:28.927Z,57.17
2022-12-01T10:23:14.861Z,49.30
2022-12-01T10:25:50.909Z,49.85
2022-12-01T10:28:35.784Z,47.60
2022-12-01T10:31:13.817Z,48.17
2022-12-01T10:33:50.001Z,55.17
2022-12-01T10:36:16.817Z,48.35
2022-12-01T10:38:43.515Z,55.50
2022-12-01T10:41:12.485Z,43.00
2022-12-01T10:43:50.524Z,41.67
2022-12-01T10:46:45.449Z,40.85
2022-12-01T10:49:14.676Z,45.60
2022-12-01T10:51:49.218Z,38.25
2022-12-01T10:54:16.273Z,36.72
2022-12-01T10:56:47.115Z,40.35
2022-12-01T10:59:29.591Z,41.53
2022-12-01T11:01:57.546Z,40.13
2022-12-01T11:04:59.523Z,42.63
2022-12-01T11:07:42.645Z,36.40
2022-12-01T11:10:27.762Z,25.25
2022-12-01T11:13:18.310Z,28.88
2022-12-01T11:16:00.001Z,32.28
2022-12-01T11:18:33.688Z,27.88
2022-12-01T11:21:15.547Z,36.00
2022-12-01T11:23:46.083Z,27.52
2022-12-01T11:26:14.551Z,31.42
2022-12-01T11:28:54.007Z,34.72
2022-12-01T11:31:24.358Z,26.95
2022-12-01T11:33:53.245Z,28.67
2022-12-01T11:36:29.161Z,30.90
2022-12-01T11:38:58.646Z,29.33
2022-12-01T11:41:29.870Z,27.15
2022-12-01T11:44:01.816Z,26.70
2022-12-01T11:46:32.396Z,35.70
2022-12-01T11:49:00.445Z,25.35
2022-12-01T11:51:37.774Z,29.45
2022-12-01T11:54:19.072Z,28.67
2022-12-01T11:56:52.776Z,25.02
2022-12-01T12:02:22.547Z,25.42
2022-12-01T12:05:06.744Z,24.00
2022-12-01T12:07:53.935Z,24.48
2022-12-01T12:10:26.606Z,22.80
2022-12-01T12:12:59.257Z,24.95
2022-12-01T12:18:01.792Z,24.70
2022-12-01T12:23:18.089Z,27.10
2022-12-01T12:25:52.718Z,23.08
2022-12-01T12:28:39.549Z,23.45
2022-12-01T12:31:19.830Z,23.48
2022-12-01T12:34:14.412Z,23.95
2022-12-01T12:37:01.991Z,21.65
2022-12-01T12:39:50.663Z,22.20
2022-12-01T12:42:46.490Z,21.17
2022-12-01T12:45:57.841Z,20.80
2022-12-01T12:49:18.644Z,18.85
2022-12-01T12:51:42.197Z,38.60
2022-12-01T12:54:17.797Z,20.95
2022-12-01T12:56:50.733Z,23.45
2022-12-01T12:59:24.827Z,19.60
2022-12-01T13:02:01.410Z,22.52
2022-12-01T13:04:53.521Z,24.98
2022-12-01T13:07:32.179Z,17.73
2022-12-01T13:10:07.128Z,19.75
2022-12-01T13:12:38.107Z,18.98
2022-12-01T13:15:17.185Z,18.65
2022-12-01T13:20:21.834Z,17.05
2022-12-01T13:22:49.386Z,13.73
2022-12-01T13:25:38.299Z,14.55
2022-12-01T13:28:13.240Z,15.65
2022-12-01T13:30:40.050Z,16.90
2022-12-01T13:33:07.165Z,17.20
2022-12-01T13:35:36.650Z,14.48
2022-12-01T13:38:33.689Z,12.82
2022-12-01T13:41:18.691Z,14.50
2022-12-01T13:44:08.280Z,14.07
2022-12-01T13:46:44.021Z,16.10
2022-12-01T13:49:40.492Z,15.85
2022-12-01T13:52:31.494Z,15.23
2022-12-01T13:55:10.885Z,16.38
2022-12-01T13:57:40.174Z,10.15
2022-12-01T14:00:21.608Z,13.98
2022-12-01T14:03:17.568Z,12.90
2022-12-01T14:05:58.457Z,15.35
2022-12-01T14:08:34.156Z,13.93
2022-12-01T14:11:04.503Z,13.88
2022-12-01T14:13:34.061Z,13.73
2022-12-01T14:16:03.058Z,17.02
2022-12-01T14:18:39.492Z,14.82
2022-12-01T14:21:10.964Z,16.23
2022-12-01T14:23:41.312Z,15.73
2022-12-01T14:26:17.965Z,19.27
2022-12-01T14:29:00.115Z,13.40
2022-12-01T14:31:32.964Z,16.90
2022-12-01T14:34:02.779Z,14.90
2022-12-01T14:36:41.429Z,22.50
2022-12-01T14:39:15.691Z,18.20
2022-12-01T14:42:04.293Z,20.65
2022-12-01T14:44:44.977Z,16.00
2022-12-01T14:47:12.417Z,15.25
2022-12-01T14:50:06.993Z,18.10
2022-12-01T14:52:38.977Z,19.50
2022-12-01T14:55:21.167Z,22.02
2022-12-01T14:57:53.605Z,19.15
2022-12-01T15:00:23.658Z,17.45
2022-12-01T15:02:58.918Z,19.90
2022-12-01T15:05:29.343Z,19.02
2022-12-01T15:08:18.775Z,17.05
2022-12-01T15:10:53.884Z,22.80
2022-12-01T15:13:29.050Z,18.83
2022-12-01T15:16:16.049Z,17.95
2022-12-01T15:18:45.271Z,18.67
2022-12-01T15:21:15.814Z,19.63
2022-12-01T15:24:07.703Z,22.52
2022-12-01T15:26:40.222Z,18.33
2022-12-01T15:29:16.880Z,20.67
2022-12-01T15:31:50.674Z,20.60
2022-12-01T15:34:24.997Z,20.42
2022-12-01T15:36:55.570Z,21.58
2022-12-01T15:39:35.276Z,22.48
2022-12-01T15:44:38.469Z,23.48
2022-12-01T15:47:32.190Z,24.15
2022-12-01T15:50:00.867Z,23.38
2022-12-01T15:52:28.618Z,27.55
2022-12-01T15:54:55.625Z,32.75
2022-12-01T15:57:22.647Z,27.83
2022-12-01T15:59:58.151Z,22.05
2022-12-01T16:02:32.686Z,21.63
2022-12-01T16:05:12.283Z,22.38
2022-12-01T16:08:11.470Z,19.77
2022-12-01T16:10:33.201Z,20.45
2022-12-01T16:13:38.267Z,20.35
2022-12-01T16:16:29.763Z,24.35
2022-12-01T16:19:04.004Z,23.52
2022-12-01T16:21:53.990Z,22.55
2022-12-01T16:24:52.665Z,23.75
2022-12-01T16:27:53.265Z,23.08
2022-12-01T16:30:25.337Z,23.25
2022-12-01T16:33:14.911Z,25.08
2022-12-01T16:35:47.783Z,22.25
2022-12-01T16:38:52.352Z,20.60
2022-12-01T16:41:55.403Z,25.02
2022-12-01T16:44:42.304Z,23.90
2022-12-01T16:47:18.145Z,24.83
2022-12-01T16:49:47.654Z,22.50
2022-12-01T16:55:47.256Z,21.38
2022-12-01T16:58:15.683Z,26.23
2022-12-01T17:00:43.047Z,31.90
2022-12-01T17:03:14.899Z,21.48
2022-12-01T17:05:53.815Z,24.40
2022-12-01T17:08:21.245Z,26.58
2022-12-01T17:10:52.197Z,25.45
2022-12-01T17:13:23.464Z,21.50
2022-12-01T17:15:52.607Z,25.77
2022-12-01T17:18:21.348Z,25.50
2022-12-01T17:20:59.472Z,25.35
2022-12-01T17:23:26.835Z,24.23
2022-12-01T17:25:54.128Z,25.85
2022-12-01T17:28:21.396Z,28.98
2022-12-01T17:30:48.140Z,22.92
2022-12-01T17:33:15.160Z,25.40
2022-12-01T17:35:42.229Z,25.15
2022-12-01T17:38:10.250Z,23.77
2022-12-01T17:40:37.131Z,27.52
2022-12-01T17:43:03.956Z,24.67
2022-12-01T17:45:30.587Z,29.25
2022-12-01T17:47:57.607Z,26.50
2022-12-01T17:50:24.249Z,28.33
2022-12-01T17:52:50.994Z,31.05
2022-12-01T17:55:17.789Z,26.98
2022-12-01T17:57:44.684Z,23.77
2022-12-01T18:00:12.067Z,23.30
2022-12-01T18:02:40.674Z,21.15
2022-12-01T18:05:08.472Z,22.88
2022-12-01T18:07:36.250Z,23.70
2022-12-01T18:10:03.063Z,20.27
2022-12-01T18:12:30.205Z,22.23
2022-12-01T18:14:56.878Z,26.92
2022-12-01T18:17:26.579Z,22.30
2022-12-01T18:19:55.362Z,22.83
2022-12-01T18:22:26.693Z,20.13
2022-12-01T18:24:58.061Z,23.30
2022-12-01T18:27:29.413Z,26.50
2022-12-01T18:29:59.293Z,27.48
2022-12-01T18:32:29.185Z,23.10
2022-12-01T18:35:04.967Z,20.45
2022-12-01T18:37:42.144Z,22.33
2022-12-01T18:40:17.013Z,19.45
2022-12-01T18:42:56.025Z,19.90
2022-12-01T18:45:31.405Z,18.65
2022-12-01T18:48:00.483Z,23.75
2022-12-01T18:50:27.374Z,19.45
2022-12-01T18:52:54.228Z,19.83
2022-12-01T18:55:22.733Z,23.27
2022-12-01T18:57:49.642Z,18.85
2022-12-01T19:00:16.843Z,24.08
2022-12-01T19:02:44.144Z,20.00
2022-12-01T19:05:10.983Z,22.63
2022-12-01T19:07:37.942Z,19.52
2022-12-01T19:10:05.325Z,20.90
2022-12-01T19:12:36.451Z,24.33
2022-12-01T19:15:06.862Z,24.42
2022-12-01T19:17:33.889Z,21.83
2022-12-01T19:20:00.646Z,25.77
2022-12-01T19:22:27.416Z,18.98
2022-12-01T19:24:54.454Z,19.60
2022-12-01T19:27:21.314Z,22.10
2022-12-01T19:29:50.061Z,21.75
2022-12-01T19:32:16.921Z,22.83
2022-12-01T19:34:43.859Z,21.33
2022-12-01T19:37:11.096Z,21.13
2022-12-01T19:39:38.656Z,21.13
2022-12-01T19:42:05.624Z,21.33
2022-12-01T19:44:32.559Z,17.80
2022-12-01T19:46:59.452Z,21.33
2022-12-01T19:49:26.439Z,20.80
2022-12-01T19:51:53.288Z,21.98
2022-12-01T19:54:20.483Z,19.52
2022-12-01T19:56:49.032Z,23.48
2022-12-01T19:59:15.967Z,21.25
2022-12-01T20:01:42.828Z,22.05
2022-12-01T20:04:09.545Z,25.80
2022-12-01T20:06:37.861Z,22.33
2022-12-01T20:09:06.278Z,21.33
2022-12-01T20:11:35.224Z,23.05
2022-12-01T20:14:03.417Z,26.48
2022-12-01T20:16:32.266Z,23.13
2022-12-01T20:19:01.408Z,25.65
2022-12-01T20:21:33.588Z,21.77
2022-12-01T20:24:02.818Z,29.23
2022-12-01T20:26:33.325Z,22.15
2022-12-01T20:29:03.332Z,25.08
2022-12-01T20:31:32.420Z,28.00
2022-12-01T20:34:03.012Z,28.48
2022-12-01T20:36:30.972Z,21.90
2022-12-01T20:38:58.585Z,28.42
2022-12-01T20:41:26.384Z,27.45
2022-12-01T20:43:54.103Z,30.27
2022-12-01T20:46:21.771Z,27.48
2022-12-01T20:48:49.276Z,26.58
2022-12-01T20:51:17.437Z,29.73
2022-12-01T20:54:05.539Z,27.75
2022-12-01T20:56:32.630Z,28.92
2022-12-01T20:59:00.003Z,28.80
2022-12-01T21:01:26.878Z,31.98
2022-12-01T21:03:53.906Z,30.27
2022-12-01T21:06:21.697Z,30.42
2022-12-01T21:08:49.741Z,32.20
2022-12-01T21:11:18.989Z,35.47
2022-12-01T21:13:46.786Z,36.90
2022-12-01T21:16:16.618Z,35.35
2022-12-01T21:18:53.486Z,37.13
2022-12-01T21:21:22.545Z,36.70
2022-12-01T21:24:26.121Z,40.92
2022-12-01T21:27:02.137Z,37.70
2022-12-01T21:29:38.919Z,39.92
2022-12-01T21:32:16.027Z,39.95
2022-12-01T21:34:43.801Z,39.28
2022-12-01T21:37:19.657Z,34.42
2022-12-01T21:39:50.932Z,39.33
2022-12-01T21:42:23.071Z,37.10
2022-12-01T21:44:50.734Z,43.33
2022-12-01T21:47:26.415Z,46.22
2022-12-01T21:49:54.834Z,38.35
2022-12-01T21:52:30.069Z,46.88
2022-12-01T21:55:02.778Z,47.50
2022-12-01T21:57:51.451Z,43.33
2022-12-01T22:00:27.445Z,43.03
2022-12-01T22:03:09.376Z,50.38
2022-12-01T22:05:42.857Z,43.08
2022-12-01T22:08:12.658Z,46.65
2022-12-01T22:10:58.073Z,48.83
2022-12-01T22:15:54.605Z,46.33
2022-12-01T22:18:29.850Z,46.38
2022-12-01T22:20:56.613Z,51.83
2022-12-01T22:23:28.694Z,51.33
2022-12-01T22:25:55.487Z,56.38
2022-12-01T22:28:23.654Z,50.92
2022-12-01T22:30:50.488Z,55.97
2022-12-01T22:33:22.130Z,59.85
2022-12-01T22:35:50.922Z,53.35
2022-12-01T22:38:22.018Z,61.10
2022-12-01T22:40:48.655Z,57.30
2022-12-01T22:45:47.768Z,60.78
2022-12-01T22:48:40.630Z,59.47
2022-12-01T22:51:25.120Z,58.40
2022-12-01T22:53:57.375Z,53.65
2022-12-01T22:56:35.162Z,61.30
2022-12-01T22:59:16.882Z,61.03
2022-12-01T23:01:49.581Z,56.78
2022-12-01T23:04:19.538Z,55.90
2022-12-01T23:06:49.553Z,59.28
2022-12-01T23:09:16.367Z,60.67
2022-12-01T23:11:44.217Z,59.65
2022-12-01T23:14:17.004Z,64.47
2022-12-01T23:16:43.867Z,63.38
2022-12-01T23:19:10.642Z,61.78
2022-12-01T23:21:37.431Z,65.53
2022-12-01T23:24:06.047Z,61.15
2022-12-01T23:26:32.900Z,58.90
2022-12-01T23:29:00.535Z,58.40
2022-12-01T23:31:27.841Z,59.92
2022-12-01T23:33:54.732Z,64.95
2022-12-01T23:36:26.802Z,64.00
2022-12-01T23:38:57.265Z,63.42
2022-12-01T23:41:33.865Z,66.32
2022-12-01T23:44:05.781Z,63.10
2022-12-01T23:46:32.786Z,67.15
2022-12-01T23:49:02.125Z,62.92
2022-12-01T23:51:32.681Z,64.25
2022-12-01T23:54:01.502Z,66.43
2022-12-01T23:56:30.938Z,64.20
2022-12-01T23:58:58.223Z,70.80
